sensor_id;sensor_type;location;lat;lon;timestamp;pressure;altitude;pressure_sealevel;temperature
41940;BMP180;23057;48.554;14.454;2022-08-14T00:02:27;93615.00;;;24.50
41940;BMP180;23057;48.554;14.454;2022-08-14T00:04:58;93615.00;;;24.50
41940;BMP180;23057;48.554;14.454;2022-08-14T00:07:29;93619.00;;;24.50
41940;BMP180;23057;48.554;14.454;2022-08-14T00:10:01;93619.00;;;24.50
41940;BMP180;23057;48.554;14.454;2022-08-14T00:12:36;93610.00;;;24.40
41940;BMP180;23057;48.554;14.454;2022-08-14T00:15:11;93607.00;;;24.30
41940;BMP180;23057;48.554;14.454;2022-08-14T00:17:46;93600.00;;;24.30
41940;BMP180;23057;48.554;14.454;2022-08-14T00:20:21;93595.00;;;24.30
41940;BMP180;23057;48.554;14.454;2022-08-14T00:22:55;93588.00;;;24.30
41940;BMP180;23057;48.554;14.454;2022-08-14T00:25:27;93597.00;;;24.30
41940;BMP180;23057;48.554;14.454;2022-08-14T00:27:58;93593.00;;;24.30
41940;BMP180;23057;48.554;14.454;2022-08-14T00:30:29;93593.00;;;24.30
41940;BMP180;23057;48.554;14.454;2022-08-14T00:33:00;93590.00;;;24.30
41940;BMP180;23057;48.554;14.454;2022-08-14T00:35:32;93592.00;;;24.20
41940;BMP180;23057;48.554;14.454;2022-08-14T00:38:03;93583.00;;;24.20
41940;BMP180;23057;48.554;14.454;2022-08-14T00:40:34;93584.00;;;24.20
41940;BMP180;23057;48.554;14.454;2022-08-14T00:43:05;93581.00;;;24.20
41940;BMP180;23057;48.554;14.454;2022-08-14T00:45:36;93580.00;;;24.20
41940;BMP180;23057;48.554;14.454;2022-08-14T00:48:08;93586.00;;;24.20
41940;BMP180;23057;48.554;14.454;2022-08-14T00:50:39;93578.00;;;24.20
41940;BMP180;23057;48.554;14.454;2022-08-14T00:53:11;93586.00;;;24.10
41940;BMP180;23057;48.554;14.454;2022-08-14T00:55:42;93577.00;;;24.10
41940;BMP180;23057;48.554;14.454;2022-08-14T00:58:14;93572.00;;;24.10
41940;BMP180;23057;48.554;14.454;2022-08-14T01:01:02;93573.00;;;24.00
41940;BMP180;23057;48.554;14.454;2022-08-14T01:03:36;93569.00;;;24.00
41940;BMP180;23057;48.554;14.454;2022-08-14T01:06:11;93571.00;;;24.00
41940;BMP180;23057;48.554;14.454;2022-08-14T01:08:46;93570.00;;;24.00
41940;BMP180;23057;48.554;14.454;2022-08-14T01:11:19;93580.00;;;23.90
41940;BMP180;23057;48.554;14.454;2022-08-14T01:13:50;93586.00;;;23.80
41940;BMP180;23057;48.554;14.454;2022-08-14T01:16:22;93585.00;;;23.80
41940;BMP180;23057;48.554;14.454;2022-08-14T01:18:54;93583.00;;;23.70
41940;BMP180;23057;48.554;14.454;2022-08-14T01:21:43;93584.00;;;23.60
41940;BMP180;23057;48.554;14.454;2022-08-14T01:24:16;93589.00;;;23.60
41940;BMP180;23057;48.554;14.454;2022-08-14T01:26:47;93588.00;;;23.60
41940;BMP180;23057;48.554;14.454;2022-08-14T01:29:19;93598.00;;;23.50
41940;BMP180;23057;48.554;14.454;2022-08-14T01:31:50;93601.00;;;23.50
41940;BMP180;23057;48.554;14.454;2022-08-14T01:34:23;93601.00;;;23.50
41940;BMP180;23057;48.554;14.454;2022-08-14T01:36:55;93597.00;;;23.50
41940;BMP180;23057;48.554;14.454;2022-08-14T01:39:26;93599.00;;;23.60
41940;BMP180;23057;48.554;14.454;2022-08-14T01:41:57;93592.00;;;23.60
41940;BMP180;23057;48.554;14.454;2022-08-14T01:44:30;93591.00;;;23.60
41940;BMP180;23057;48.554;14.454;2022-08-14T01:47:05;93592.00;;;23.60
41940;BMP180;23057;48.554;14.454;2022-08-14T01:49:44;93589.00;;;23.70
41940;BMP180;23057;48.554;14.454;2022-08-14T01:52:15;93589.00;;;23.70
41940;BMP180;23057;48.554;14.454;2022-08-14T01:54:48;93593.00;;;23.70
41940;BMP180;23057;48.554;14.454;2022-08-14T01:57:18;93589.00;;;23.80
41940;BMP180;23057;48.554;14.454;2022-08-14T01:59:49;93588.00;;;23.80
41940;BMP180;23057;48.554;14.454;2022-08-14T02:02:20;93584.00;;;23.80
41940;BMP180;23057;48.554;14.454;2022-08-14T02:04:52;93580.00;;;23.80
41940;BMP180;23057;48.554;14.454;2022-08-14T02:07:23;93579.00;;;23.80
41940;BMP180;23057;48.554;14.454;2022-08-14T02:09:54;93573.00;;;23.70
41940;BMP180;23057;48.554;14.454;2022-08-14T02:12:25;93571.00;;;23.70
41940;BMP180;23057;48.554;14.454;2022-08-14T02:14:55;93565.00;;;23.60
41940;BMP180;23057;48.554;14.454;2022-08-14T02:17:27;93567.00;;;23.60
41940;BMP180;23057;48.554;14.454;2022-08-14T02:19:59;93562.00;;;23.60
41940;BMP180;23057;48.554;14.454;2022-08-14T02:22:29;93553.00;;;23.60
41940;BMP180;23057;48.554;14.454;2022-08-14T02:25:01;93560.00;;;23.60
41940;BMP180;23057;48.554;14.454;2022-08-14T02:27:32;93553.00;;;23.60
41940;BMP180;23057;48.554;14.454;2022-08-14T02:30:04;93561.00;;;23.70
41940;BMP180;23057;48.554;14.454;2022-08-14T02:32:35;93551.00;;;23.70
41940;BMP180;23057;48.554;14.454;2022-08-14T02:35:09;93550.00;;;23.70
41940;BMP180;23057;48.554;14.454;2022-08-14T02:37:48;93548.00;;;23.80
41940;BMP180;23057;48.554;14.454;2022-08-14T02:40:20;93548.00;;;23.80
41940;BMP180;23057;48.554;14.454;2022-08-14T02:42:51;93545.00;;;23.80
41940;BMP180;23057;48.554;14.454;2022-08-14T02:45:22;93549.00;;;23.80
41940;BMP180;23057;48.554;14.454;2022-08-14T02:47:53;93546.00;;;23.90
41940;BMP180;23057;48.554;14.454;2022-08-14T02:50:24;93547.00;;;23.90
41940;BMP180;23057;48.554;14.454;2022-08-14T02:52:55;93542.00;;;23.90
41940;BMP180;23057;48.554;14.454;2022-08-14T02:55:25;93543.00;;;24.00
41940;BMP180;23057;48.554;14.454;2022-08-14T02:57:56;93550.00;;;24.00
41940;BMP180;23057;48.554;14.454;2022-08-14T03:00:28;93549.00;;;24.00
41940;BMP180;23057;48.554;14.454;2022-08-14T03:02:59;93538.00;;;24.00
41940;BMP180;23057;48.554;14.454;2022-08-14T03:05:31;93536.00;;;24.00
41940;BMP180;23057;48.554;14.454;2022-08-14T03:08:04;93540.00;;;24.10
41940;BMP180;23057;48.554;14.454;2022-08-14T03:10:41;93537.00;;;24.10
41940;BMP180;23057;48.554;14.454;2022-08-14T03:13:12;93543.00;;;24.10
41940;BMP180;23057;48.554;14.454;2022-08-14T03:15:42;93540.00;;;24.00
41940;BMP180;23057;48.554;14.454;2022-08-14T03:18:22;93542.00;;;24.00
41940;BMP180;23057;48.554;14.454;2022-08-14T03:20:56;93544.00;;;24.00
41940;BMP180;23057;48.554;14.454;2022-08-14T03:23:28;93540.00;;;23.90
41940;BMP180;23057;48.554;14.454;2022-08-14T03:26:04;93546.00;;;23.90
41940;BMP180;23057;48.554;14.454;2022-08-14T03:28:38;93542.00;;;24.00
41940;BMP180;23057;48.554;14.454;2022-08-14T03:31:12;93546.00;;;24.00
41940;BMP180;23057;48.554;14.454;2022-08-14T03:33:44;93547.00;;;24.00
41940;BMP180;23057;48.554;14.454;2022-08-14T03:36:16;93547.00;;;24.00
41940;BMP180;23057;48.554;14.454;2022-08-14T03:38:51;93540.00;;;24.00
41940;BMP180;23057;48.554;14.454;2022-08-14T03:41:26;93526.00;;;24.00
41940;BMP180;23057;48.554;14.454;2022-08-14T03:44:00;93524.00;;;24.10
41940;BMP180;23057;48.554;14.454;2022-08-14T03:46:35;93529.00;;;24.10
41940;BMP180;23057;48.554;14.454;2022-08-14T03:49:08;93525.00;;;24.10
41940;BMP180;23057;48.554;14.454;2022-08-14T03:51:39;93526.00;;;24.10
41940;BMP180;23057;48.554;14.454;2022-08-14T03:54:10;93526.00;;;24.10
41940;BMP180;23057;48.554;14.454;2022-08-14T03:56:42;93538.00;;;24.10
41940;BMP180;23057;48.554;14.454;2022-08-14T03:59:14;93528.00;;;24.10
41940;BMP180;23057;48.554;14.454;2022-08-14T04:01:45;93529.00;;;24.10
41940;BMP180;23057;48.554;14.454;2022-08-14T04:04:18;93533.00;;;24.10
41940;BMP180;23057;48.554;14.454;2022-08-14T04:06:49;93531.00;;;24.10
41940;BMP180;23057;48.554;14.454;2022-08-14T04:09:20;93534.00;;;24.10
41940;BMP180;23057;48.554;14.454;2022-08-14T04:11:51;93530.00;;;24.00
41940;BMP180;23057;48.554;14.454;2022-08-14T04:14:22;93534.00;;;24.10
41940;BMP180;23057;48.554;14.454;2022-08-14T04:16:53;93541.00;;;24.10
41940;BMP180;23057;48.554;14.454;2022-08-14T04:19:24;93535.00;;;24.10
41940;BMP180;23057;48.554;14.454;2022-08-14T04:21:55;93535.00;;;24.10
41940;BMP180;23057;48.554;14.454;2022-08-14T04:24:25;93538.00;;;24.10
41940;BMP180;23057;48.554;14.454;2022-08-14T04:26:56;93535.00;;;24.20
41940;BMP180;23057;48.554;14.454;2022-08-14T04:29:27;93528.00;;;24.20
41940;BMP180;23057;48.554;14.454;2022-08-14T04:31:58;93527.00;;;24.20
41940;BMP180;23057;48.554;14.454;2022-08-14T04:34:29;93534.00;;;24.30
41940;BMP180;23057;48.554;14.454;2022-08-14T04:37:00;93529.00;;;24.30
41940;BMP180;23057;48.554;14.454;2022-08-14T04:39:50;93539.00;;;24.30
41940;BMP180;23057;48.554;14.454;2022-08-14T04:42:40;93530.00;;;24.30
41940;BMP180;23057;48.554;14.454;2022-08-14T04:45:30;93533.00;;;24.30
41940;BMP180;23057;48.554;14.454;2022-08-14T04:48:14;93530.00;;;24.30
41940;BMP180;23057;48.554;14.454;2022-08-14T04:50:48;93518.00;;;24.30
41940;BMP180;23057;48.554;14.454;2022-08-14T04:53:23;93524.00;;;24.30
41940;BMP180;23057;48.554;14.454;2022-08-14T04:55:56;93523.00;;;24.40
41940;BMP180;23057;48.554;14.454;2022-08-14T04:58:29;93514.00;;;24.40
41940;BMP180;23057;48.554;14.454;2022-08-14T05:01:04;93516.00;;;24.40
41940;BMP180;23057;48.554;14.454;2022-08-14T05:03:37;93514.00;;;24.40
41940;BMP180;23057;48.554;14.454;2022-08-14T05:06:11;93512.00;;;24.40
41940;BMP180;23057;48.554;14.454;2022-08-14T05:08:42;93506.00;;;24.40
41940;BMP180;23057;48.554;14.454;2022-08-14T05:11:13;93506.00;;;24.40
41940;BMP180;23057;48.554;14.454;2022-08-14T05:13:44;93502.00;;;24.40
41940;BMP180;23057;48.554;14.454;2022-08-14T05:16:15;93508.00;;;24.40
41940;BMP180;23057;48.554;14.454;2022-08-14T05:18:46;93492.00;;;24.40
41940;BMP180;23057;48.554;14.454;2022-08-14T05:21:19;93501.00;;;24.40
41940;BMP180;23057;48.554;14.454;2022-08-14T05:23:50;93505.00;;;24.50
41940;BMP180;23057;48.554;14.454;2022-08-14T05:26:21;93494.00;;;24.50
41940;BMP180;23057;48.554;14.454;2022-08-14T05:28:52;93500.00;;;24.50
41940;BMP180;23057;48.554;14.454;2022-08-14T05:31:23;93503.00;;;24.50
41940;BMP180;23057;48.554;14.454;2022-08-14T05:33:53;93502.00;;;24.40
41940;BMP180;23057;48.554;14.454;2022-08-14T05:36:24;93500.00;;;24.40
41940;BMP180;23057;48.554;14.454;2022-08-14T05:38:55;93495.00;;;24.40
41940;BMP180;23057;48.554;14.454;2022-08-14T05:41:26;93484.00;;;24.40
41940;BMP180;23057;48.554;14.454;2022-08-14T05:43:57;93490.00;;;24.40
41940;BMP180;23057;48.554;14.454;2022-08-14T05:46:28;93486.00;;;24.40
41940;BMP180;23057;48.554;14.454;2022-08-14T05:48:59;93482.00;;;24.40
41940;BMP180;23057;48.554;14.454;2022-08-14T05:51:30;93481.00;;;24.40
41940;BMP180;23057;48.554;14.454;2022-08-14T05:54:01;93493.00;;;24.40
41940;BMP180;23057;48.554;14.454;2022-08-14T05:56:32;93485.00;;;24.40
41940;BMP180;23057;48.554;14.454;2022-08-14T05:59:03;93490.00;;;24.50
41940;BMP180;23057;48.554;14.454;2022-08-14T06:01:35;93489.00;;;24.40
41940;BMP180;23057;48.554;14.454;2022-08-14T06:04:05;93495.00;;;24.40
41940;BMP180;23057;48.554;14.454;2022-08-14T06:06:36;93485.00;;;24.50
41940;BMP180;23057;48.554;14.454;2022-08-14T06:09:07;93484.00;;;24.50
41940;BMP180;23057;48.554;14.454;2022-08-14T06:11:39;93484.00;;;24.50
41940;BMP180;23057;48.554;14.454;2022-08-14T06:14:10;93477.00;;;24.50
41940;BMP180;23057;48.554;14.454;2022-08-14T06:16:41;93478.00;;;24.50
41940;BMP180;23057;48.554;14.454;2022-08-14T06:19:14;93475.00;;;24.50
41940;BMP180;23057;48.554;14.454;2022-08-14T06:21:45;93472.00;;;24.60
41940;BMP180;23057;48.554;14.454;2022-08-14T06:24:16;93463.00;;;24.60
41940;BMP180;23057;48.554;14.454;2022-08-14T06:26:48;93464.00;;;24.60
41940;BMP180;23057;48.554;14.454;2022-08-14T06:29:19;93459.00;;;24.70
41940;BMP180;23057;48.554;14.454;2022-08-14T06:31:50;93456.00;;;24.70
41940;BMP180;23057;48.554;14.454;2022-08-14T06:34:21;93454.00;;;24.70
41940;BMP180;23057;48.554;14.454;2022-08-14T06:36:52;93455.00;;;24.70
41940;BMP180;23057;48.554;14.454;2022-08-14T06:39:25;93453.00;;;24.70
41940;BMP180;23057;48.554;14.454;2022-08-14T06:41:56;93442.00;;;24.70
41940;BMP180;23057;48.554;14.454;2022-08-14T06:44:27;93451.00;;;24.70
41940;BMP180;23057;48.554;14.454;2022-08-14T06:46:58;93452.00;;;24.70
41940;BMP180;23057;48.554;14.454;2022-08-14T06:49:32;93459.00;;;24.80
41940;BMP180;23057;48.554;14.454;2022-08-14T06:52:03;93457.00;;;25.00
41940;BMP180;23057;48.554;14.454;2022-08-14T06:54:34;93459.00;;;25.10
41940;BMP180;23057;48.554;14.454;2022-08-14T06:57:05;93458.00;;;25.10
41940;BMP180;23057;48.554;14.454;2022-08-14T06:59:35;93452.00;;;25.00
41940;BMP180;23057;48.554;14.454;2022-08-14T07:02:06;93453.00;;;25.00
41940;BMP180;23057;48.554;14.454;2022-08-14T07:04:56;93450.00;;;25.00
41940;BMP180;23057;48.554;14.454;2022-08-14T07:07:46;93454.00;;;25.00
41940;BMP180;23057;48.554;14.454;2022-08-14T07:10:16;93455.00;;;25.00
41940;BMP180;23057;48.554;14.454;2022-08-14T07:12:47;93468.00;;;25.10
41940;BMP180;23057;48.554;14.454;2022-08-14T07:15:18;93465.00;;;25.10
41940;BMP180;23057;48.554;14.454;2022-08-14T07:17:50;93473.00;;;25.10
41940;BMP180;23057;48.554;14.454;2022-08-14T07:20:21;93469.00;;;25.10
41940;BMP180;23057;48.554;14.454;2022-08-14T07:22:52;93473.00;;;25.10
41940;BMP180;23057;48.554;14.454;2022-08-14T07:25:27;93471.00;;;25.20
41940;BMP180;23057;48.554;14.454;2022-08-14T07:27:59;93466.00;;;25.40
41940;BMP180;23057;48.554;14.454;2022-08-14T07:30:30;93464.00;;;25.60
41940;BMP180;23057;48.554;14.454;2022-08-14T07:33:02;93460.00;;;25.70
41940;BMP180;23057;48.554;14.454;2022-08-14T07:35:34;93457.00;;;25.90
41940;BMP180;23057;48.554;14.454;2022-08-14T07:38:07;93469.00;;;25.90
41940;BMP180;23057;48.554;14.454;2022-08-14T07:40:38;93469.00;;;26.00
41940;BMP180;23057;48.554;14.454;2022-08-14T07:43:08;93465.00;;;26.00
41940;BMP180;23057;48.554;14.454;2022-08-14T07:45:40;93462.00;;;26.00
41940;BMP180;23057;48.554;14.454;2022-08-14T07:48:10;93466.00;;;26.00
41940;BMP180;23057;48.554;14.454;2022-08-14T07:50:41;93467.00;;;26.00
41940;BMP180;23057;48.554;14.454;2022-08-14T07:53:13;93462.00;;;26.00
41940;BMP180;23057;48.554;14.454;2022-08-14T07:55:44;93468.00;;;26.10
41940;BMP180;23057;48.554;14.454;2022-08-14T07:58:18;93467.00;;;26.20
41940;BMP180;23057;48.554;14.454;2022-08-14T08:00:53;93472.00;;;26.20
41940;BMP180;23057;48.554;14.454;2022-08-14T08:03:25;93466.00;;;26.20
41940;BMP180;23057;48.554;14.454;2022-08-14T08:05:57;93460.00;;;26.30
41940;BMP180;23057;48.554;14.454;2022-08-14T08:08:30;93461.00;;;26.40
41940;BMP180;23057;48.554;14.454;2022-08-14T08:11:02;93463.00;;;26.50
41940;BMP180;23057;48.554;14.454;2022-08-14T08:13:34;93463.00;;;26.50
41940;BMP180;23057;48.554;14.454;2022-08-14T08:16:11;93459.00;;;26.60
41940;BMP180;23057;48.554;14.454;2022-08-14T08:18:42;93454.00;;;26.70
41940;BMP180;23057;48.554;14.454;2022-08-14T08:21:13;93456.00;;;26.70
41940;BMP180;23057;48.554;14.454;2022-08-14T08:23:44;93465.00;;;26.70
41940;BMP180;23057;48.554;14.454;2022-08-14T08:26:14;93472.00;;;26.60
41940;BMP180;23057;48.554;14.454;2022-08-14T08:28:55;93470.00;;;26.60
41940;BMP180;23057;48.554;14.454;2022-08-14T08:31:27;93472.00;;;26.60
41940;BMP180;23057;48.554;14.454;2022-08-14T08:33:58;93474.00;;;26.60
41940;BMP180;23057;48.554;14.454;2022-08-14T08:36:40;93472.00;;;26.60
41940;BMP180;23057;48.554;14.454;2022-08-14T08:39:11;93469.00;;;26.70
41940;BMP180;23057;48.554;14.454;2022-08-14T08:41:44;93469.00;;;26.80
41940;BMP180;23057;48.554;14.454;2022-08-14T08:44:16;93475.00;;;26.90
41940;BMP180;23057;48.554;14.454;2022-08-14T08:46:55;93470.00;;;27.00
41940;BMP180;23057;48.554;14.454;2022-08-14T08:49:39;93466.00;;;27.10
41940;BMP180;23057;48.554;14.454;2022-08-14T08:52:15;93462.00;;;27.20
41940;BMP180;23057;48.554;14.454;2022-08-14T08:54:53;93466.00;;;27.30
41940;BMP180;23057;48.554;14.454;2022-08-14T08:57:24;93460.00;;;27.50
41940;BMP180;23057;48.554;14.454;2022-08-14T08:59:55;93459.00;;;27.50
41940;BMP180;23057;48.554;14.454;2022-08-14T09:02:26;93451.00;;;27.60
41940;BMP180;23057;48.554;14.454;2022-08-14T09:05:03;93453.00;;;27.60
41940;BMP180;23057;48.554;14.454;2022-08-14T09:07:35;93447.00;;;27.60
41940;BMP180;23057;48.554;14.454;2022-08-14T09:10:06;93433.00;;;27.60
41940;BMP180;23057;48.554;14.454;2022-08-14T09:12:37;93437.00;;;27.60
41940;BMP180;23057;48.554;14.454;2022-08-14T09:15:09;93445.00;;;27.60
41940;BMP180;23057;48.554;14.454;2022-08-14T09:17:41;93441.00;;;27.50
41940;BMP180;23057;48.554;14.454;2022-08-14T09:20:13;93440.00;;;27.40
41940;BMP180;23057;48.554;14.454;2022-08-14T09:22:44;93432.00;;;27.40
41940;BMP180;23057;48.554;14.454;2022-08-14T09:25:17;93429.00;;;27.40
41940;BMP180;23057;48.554;14.454;2022-08-14T09:27:48;93426.00;;;27.40
41940;BMP180;23057;48.554;14.454;2022-08-14T09:30:19;93428.00;;;27.40
41940;BMP180;23057;48.554;14.454;2022-08-14T09:39:03;93422.00;;;27.40
41940;BMP180;23057;48.554;14.454;2022-08-14T09:48:00;93421.00;;;27.30
41940;BMP180;23057;48.554;14.454;2022-08-14T09:50:35;93422.00;;;27.20
41940;BMP180;23057;48.554;14.454;2022-08-14T09:53:30;93418.00;;;27.20
41940;BMP180;23057;48.554;14.454;2022-08-14T09:56:11;93426.00;;;27.20
41940;BMP180;23057;48.554;14.454;2022-08-14T09:58:45;93430.00;;;27.30
41940;BMP180;23057;48.554;14.454;2022-08-14T10:01:19;93419.00;;;27.30
41940;BMP180;23057;48.554;14.454;2022-08-14T10:03:53;93415.00;;;27.30
41940;BMP180;23057;48.554;14.454;2022-08-14T10:06:27;93414.00;;;27.40
41940;BMP180;23057;48.554;14.454;2022-08-14T10:09:07;93413.00;;;27.50
41940;BMP180;23057;48.554;14.454;2022-08-14T10:11:39;93415.00;;;27.50
41940;BMP180;23057;48.554;14.454;2022-08-14T10:14:17;93416.00;;;27.70
41940;BMP180;23057;48.554;14.454;2022-08-14T10:16:52;93410.00;;;27.80
41940;BMP180;23057;48.554;14.454;2022-08-14T10:19:26;93414.00;;;28.00
41940;BMP180;23057;48.554;14.454;2022-08-14T10:22:04;93414.00;;;28.20
41940;BMP180;23057;48.554;14.454;2022-08-14T10:24:39;93419.00;;;28.30
41940;BMP180;23057;48.554;14.454;2022-08-14T10:27:16;93415.00;;;28.50
41940;BMP180;23057;48.554;14.454;2022-08-14T10:29:57;93395.00;;;28.60
41940;BMP180;23057;48.554;14.454;2022-08-14T10:32:45;93402.00;;;28.70
41940;BMP180;23057;48.554;14.454;2022-08-14T10:35:17;93401.00;;;28.80
41940;BMP180;23057;48.554;14.454;2022-08-14T10:37:50;93398.00;;;28.90
41940;BMP180;23057;48.554;14.454;2022-08-14T10:40:30;93399.00;;;29.00
41940;BMP180;23057;48.554;14.454;2022-08-14T10:43:01;93399.00;;;29.10
41940;BMP180;23057;48.554;14.454;2022-08-14T10:45:33;93395.00;;;29.10
41940;BMP180;23057;48.554;14.454;2022-08-14T10:48:13;93397.00;;;29.00
41940;BMP180;23057;48.554;14.454;2022-08-14T10:50:46;93396.00;;;28.80
41940;BMP180;23057;48.554;14.454;2022-08-14T10:53:33;93398.00;;;28.70
41940;BMP180;23057;48.554;14.454;2022-08-14T10:56:10;93399.00;;;28.70
41940;BMP180;23057;48.554;14.454;2022-08-14T10:58:43;93402.00;;;28.60
41940;BMP180;23057;48.554;14.454;2022-08-14T11:01:14;93409.00;;;28.50
41940;BMP180;23057;48.554;14.454;2022-08-14T11:03:44;93399.00;;;28.30
41940;BMP180;23057;48.554;14.454;2022-08-14T11:06:17;93399.00;;;28.20
41940;BMP180;23057;48.554;14.454;2022-08-14T11:08:52;93409.00;;;28.20
41940;BMP180;23057;48.554;14.454;2022-08-14T11:11:25;93397.00;;;28.20
41940;BMP180;23057;48.554;14.454;2022-08-14T11:13:56;93394.00;;;28.30
41940;BMP180;23057;48.554;14.454;2022-08-14T11:16:27;93391.00;;;28.30
41940;BMP180;23057;48.554;14.454;2022-08-14T11:19:02;93390.00;;;28.30
41940;BMP180;23057;48.554;14.454;2022-08-14T11:21:33;93383.00;;;28.30
41940;BMP180;23057;48.554;14.454;2022-08-14T11:24:10;93390.00;;;28.30
41940;BMP180;23057;48.554;14.454;2022-08-14T11:26:43;93385.00;;;28.20
41940;BMP180;23057;48.554;14.454;2022-08-14T11:29:15;93389.00;;;28.20
41940;BMP180;23057;48.554;14.454;2022-08-14T11:31:47;93391.00;;;28.20
41940;BMP180;23057;48.554;14.454;2022-08-14T11:34:18;93383.00;;;28.20
41940;BMP180;23057;48.554;14.454;2022-08-14T11:36:49;93379.00;;;28.10
41940;BMP180;23057;48.554;14.454;2022-08-14T11:39:21;93376.00;;;28.10
41940;BMP180;23057;48.554;14.454;2022-08-14T11:41:52;93375.00;;;28.10
41940;BMP180;23057;48.554;14.454;2022-08-14T11:44:26;93388.00;;;28.10
41940;BMP180;23057;48.554;14.454;2022-08-14T11:46:57;93391.00;;;28.10
41940;BMP180;23057;48.554;14.454;2022-08-14T11:49:29;93391.00;;;28.10
41940;BMP180;23057;48.554;14.454;2022-08-14T11:52:01;93389.00;;;28.20
41940;BMP180;23057;48.554;14.454;2022-08-14T11:54:32;93391.00;;;28.40
41940;BMP180;23057;48.554;14.454;2022-08-14T11:57:04;93385.00;;;28.50
41940;BMP180;23057;48.554;14.454;2022-08-14T11:59:43;93384.00;;;28.50
41940;BMP180;23057;48.554;14.454;2022-08-14T12:02:15;93374.00;;;28.50
41940;BMP180;23057;48.554;14.454;2022-08-14T12:04:50;93381.00;;;28.50
41940;BMP180;23057;48.554;14.454;2022-08-14T12:07:22;93380.00;;;28.50
41940;BMP180;23057;48.554;14.454;2022-08-14T12:09:55;93384.00;;;28.50
41940;BMP180;23057;48.554;14.454;2022-08-14T12:12:27;93382.00;;;28.50
41940;BMP180;23057;48.554;14.454;2022-08-14T12:15:03;93366.00;;;28.50
41940;BMP180;23057;48.554;14.454;2022-08-14T12:17:45;93364.00;;;28.50
41940;BMP180;23057;48.554;14.454;2022-08-14T12:20:33;93360.00;;;28.60
41940;BMP180;23057;48.554;14.454;2022-08-14T12:23:18;93361.00;;;28.60
41940;BMP180;23057;48.554;14.454;2022-08-14T12:26:05;93367.00;;;28.60
41940;BMP180;23057;48.554;14.454;2022-08-14T12:28:38;93365.00;;;28.60
41940;BMP180;23057;48.554;14.454;2022-08-14T12:31:17;93362.00;;;28.70
41940;BMP180;23057;48.554;14.454;2022-08-14T12:33:57;93360.00;;;28.70
41940;BMP180;23057;48.554;14.454;2022-08-14T12:36:30;93357.00;;;28.70
41940;BMP180;23057;48.554;14.454;2022-08-14T12:39:22;93360.00;;;28.60
41940;BMP180;23057;48.554;14.454;2022-08-14T12:41:54;93356.00;;;28.60
41940;BMP180;23057;48.554;14.454;2022-08-14T12:44:36;93348.00;;;28.60
41940;BMP180;23057;48.554;14.454;2022-08-14T12:47:13;93351.00;;;28.50
41940;BMP180;23057;48.554;14.454;2022-08-14T12:49:51;93335.00;;;28.60
41940;BMP180;23057;48.554;14.454;2022-08-14T12:52:35;93337.00;;;28.70
41940;BMP180;23057;48.554;14.454;2022-08-14T12:55:15;93332.00;;;28.80
41940;BMP180;23057;48.554;14.454;2022-08-14T12:57:49;93327.00;;;29.00
41940;BMP180;23057;48.554;14.454;2022-08-14T13:00:22;93324.00;;;29.10
41940;BMP180;23057;48.554;14.454;2022-08-14T13:02:55;93320.00;;;29.20
41940;BMP180;23057;48.554;14.454;2022-08-14T13:05:28;93323.00;;;29.30
41940;BMP180;23057;48.554;14.454;2022-08-14T13:08:04;93320.00;;;29.40
41940;BMP180;23057;48.554;14.454;2022-08-14T13:10:35;93310.00;;;29.50
41940;BMP180;23057;48.554;14.454;2022-08-14T13:13:08;93307.00;;;29.70
41940;BMP180;23057;48.554;14.454;2022-08-14T13:15:42;93310.00;;;29.80
41940;BMP180;23057;48.554;14.454;2022-08-14T13:18:16;93296.00;;;29.90
41940;BMP180;23057;48.554;14.454;2022-08-14T13:20:50;93289.00;;;30.00
41940;BMP180;23057;48.554;14.454;2022-08-14T13:23:21;93284.00;;;30.10
41940;BMP180;23057;48.554;14.454;2022-08-14T13:25:55;93286.00;;;30.30
41940;BMP180;23057;48.554;14.454;2022-08-14T13:28:27;93287.00;;;30.40
41940;BMP180;23057;48.554;14.454;2022-08-14T13:31:00;93281.00;;;30.50
41940;BMP180;23057;48.554;14.454;2022-08-14T13:33:35;93277.00;;;30.50
41940;BMP180;23057;48.554;14.454;2022-08-14T13:36:08;93273.00;;;30.60
41940;BMP180;23057;48.554;14.454;2022-08-14T13:38:42;93261.00;;;30.60
41940;BMP180;23057;48.554;14.454;2022-08-14T13:41:14;93256.00;;;30.70
41940;BMP180;23057;48.554;14.454;2022-08-14T13:43:48;93259.00;;;30.90
41940;BMP180;23057;48.554;14.454;2022-08-14T13:46:20;93252.00;;;31.00
41940;BMP180;23057;48.554;14.454;2022-08-14T13:48:51;93251.00;;;31.00
41940;BMP180;23057;48.554;14.454;2022-08-14T13:51:24;93247.00;;;30.80
41940;BMP180;23057;48.554;14.454;2022-08-14T13:54:01;93246.00;;;30.60
41940;BMP180;23057;48.554;14.454;2022-08-14T13:56:37;93248.00;;;30.40
41940;BMP180;23057;48.554;14.454;2022-08-14T13:59:10;93247.00;;;30.40
41940;BMP180;23057;48.554;14.454;2022-08-14T14:01:41;93252.00;;;30.50
41940;BMP180;23057;48.554;14.454;2022-08-14T14:04:16;93248.00;;;30.50
41940;BMP180;23057;48.554;14.454;2022-08-14T14:06:49;93247.00;;;30.70
41940;BMP180;23057;48.554;14.454;2022-08-14T14:09:29;93244.00;;;30.80
41940;BMP180;23057;48.554;14.454;2022-08-14T14:12:00;93242.00;;;30.90
41940;BMP180;23057;48.554;14.454;2022-08-14T14:14:33;93244.00;;;30.90
41940;BMP180;23057;48.554;14.454;2022-08-14T14:17:10;93246.00;;;31.00
41940;BMP180;23057;48.554;14.454;2022-08-14T14:19:43;93243.00;;;30.90
41940;BMP180;23057;48.554;14.454;2022-08-14T14:22:16;93241.00;;;30.90
41940;BMP180;23057;48.554;14.454;2022-08-14T14:24:47;93232.00;;;31.00
41940;BMP180;23057;48.554;14.454;2022-08-14T14:27:19;93232.00;;;31.10
41940;BMP180;23057;48.554;14.454;2022-08-14T14:29:50;93238.00;;;31.20
41940;BMP180;23057;48.554;14.454;2022-08-14T14:32:29;93229.00;;;31.10
41940;BMP180;23057;48.554;14.454;2022-08-14T14:35:02;93232.00;;;30.90
41940;BMP180;23057;48.554;14.454;2022-08-14T14:37:38;93232.00;;;30.80
41940;BMP180;23057;48.554;14.454;2022-08-14T14:40:11;93228.00;;;30.70
41940;BMP180;23057;48.554;14.454;2022-08-14T14:42:48;93218.00;;;30.60
41940;BMP180;23057;48.554;14.454;2022-08-14T14:45:22;93219.00;;;30.50